Time;durP1;ratioP1;P1;durP2;ratioP2;P2;SDS_P1;SDS_P2;PMS_P1;PMS_P2;Temp;Humidity;BMP_temperature;BMP_pressure;BME280_temperature;BME280_humidity;BME280_pressure;Samples;Min_cycle;Max_cycle;Signal;HPM_P1;HPM_P2
2021/04/14 00:01:56;;;;;;;1.07;1.07;;;;;;;4.32;80.42;102288.63;6071420;29;20208;-72
2021/04/14 00:04:59;;;;;;;0.97;0.97;;;;;;;4.35;80.14;102269.44;6048997;29;20220;-72
2021/04/14 00:08:03;;;;;;;1.00;1.00;;;;;;;4.48;79.54;102280.81;6048229;29;20425;-72
2021/04/14 00:11:13;;;;;;;0.90;0.90;;;;;;;3.99;81.12;102286.31;6048087;29;20257;-72
2021/04/14 00:14:17;;;;;;;0.90;0.90;;;;;;;3.92;81.74;102277.06;6047931;29;20198;-72
2021/04/14 00:17:21;;;;;;;3.20;0.90;;;;;;;3.86;82.46;102277.63;6048266;29;20195;-73
2021/04/14 00:20:24;;;;;;;1.00;1.00;;;;;;;3.72;83.17;102279.72;6047902;29;20215;-72
2021/04/14 00:23:27;;;;;;;1.10;0.90;;;;;;;3.82;82.96;102287.00;6047775;29;20418;-72
2021/04/14 00:26:31;;;;;;;0.90;0.90;;;;;;;4.05;81.91;102283.06;6048783;29;20255;-72
2021/04/14 00:29:35;;;;;;;1.10;1.10;;;;;;;4.27;80.83;102282.78;6047803;29;20222;-71
2021/04/14 00:32:39;;;;;;;0.90;0.90;;;;;;;3.96;81.37;102284.75;6047717;29;20514;-72
2021/04/14 00:35:43;;;;;;;1.70;0.97;;;;;;;3.77;83.06;102285.53;6047653;29;20385;-72
2021/04/14 00:38:48;;;;;;;1.00;1.00;;;;;;;4.07;81.49;102297.28;6048930;29;20199;-72
2021/04/14 00:41:54;;;;;;;1.07;1.07;;;;;;;4.11;80.28;102294.16;6047191;29;20388;-71
2021/04/14 00:44:57;;;;;;;1.03;1.03;;;;;;;4.11;80.15;102298.72;6047377;29;20392;-71
2021/04/14 00:48:00;;;;;;;1.00;1.00;;;;;;;4.08;80.79;102299.00;6047621;29;20498;-72
2021/04/14 00:51:06;;;;;;;1.10;1.10;;;;;;;3.97;80.96;102301.81;6047632;29;20209;-71
2021/04/14 00:54:12;;;;;;;1.20;0.90;;;;;;;4.10;80.29;102302.41;6047381;29;20216;-72
2021/04/14 00:57:15;;;;;;;1.10;1.10;;;;;;;3.79;81.68;102312.44;6048786;29;20192;-72
2021/04/14 01:00:29;;;;;;;1.27;0.90;;;;;;;3.72;82.44;102309.41;6047552;29;20360;-72
2021/04/14 01:03:36;;;;;;;1.10;1.10;;;;;;;3.49;83.68;102313.28;6060407;29;20247;-73
2021/04/14 01:06:43;;;;;;;1.00;1.00;;;;;;;3.57;82.81;102310.78;6071276;29;20227;-73
2021/04/14 01:09:46;;;;;;;1.00;1.00;;;;;;;3.64;83.21;102317.34;6071624;29;20199;-72
2021/04/14 01:12:49;;;;;;;1.80;1.20;;;;;;;3.40;84.04;102330.31;6071645;29;20263;-72
2021/04/14 01:15:52;;;;;;;1.10;1.10;;;;;;;3.53;84.12;102333.63;6071603;29;20193;-72
2021/04/14 01:18:56;;;;;;;1.03;1.03;;;;;;;3.59;82.88;102333.09;6071381;29;20192;-72
2021/04/14 01:22:00;;;;;;;1.00;1.00;;;;;;;3.77;81.82;102334.16;6070702;29;20207;-71
2021/04/14 01:25:07;;;;;;;1.17;1.13;;;;;;;3.49;82.71;102339.44;6070065;29;20286;-72
2021/04/14 01:28:14;;;;;;;1.00;1.00;;;;;;;3.30;81.86;102345.59;6071498;29;20199;-72
2021/04/14 01:31:18;;;;;;;1.00;1.00;;;;;;;3.22;81.57;102347.22;6070187;29;20261;-71
2021/04/14 01:34:21;;;;;;;0.97;0.97;;;;;;;3.41;80.81;102348.22;6070064;29;20221;-72
2021/04/14 01:37:26;;;;;;;1.17;1.17;;;;;;;3.36;80.30;102339.66;6071307;29;20193;-72
2021/04/14 01:40:29;;;;;;;1.10;1.10;;;;;;;3.46;79.91;102335.19;6071130;29;20198;-73
2021/04/14 01:43:32;;;;;;;0.90;0.90;;;;;;;3.67;79.96;102360.25;6071378;29;20235;-74
2021/04/14 01:46:36;;;;;;;1.10;1.10;;;;;;;3.60;78.47;102359.09;6071095;29;20194;-72
2021/04/14 01:49:40;;;;;;;1.33;1.00;;;;;;;3.47;78.64;102369.25;6069909;29;20497;-72
2021/04/14 01:52:45;;;;;;;0.90;0.90;;;;;;;3.64;77.80;102371.34;6069885;29;20484;-72
2021/04/14 01:55:49;;;;;;;1.00;1.00;;;;;;;3.60;76.94;102375.28;6074717;29;20259;-73
2021/04/14 01:58:52;;;;;;;0.90;0.90;;;;;;;3.47;76.47;102374.63;6074132;29;20389;-72
2021/04/14 02:01:56;;;;;;;0.80;0.80;;;;;;;3.48;76.15;102370.97;6075095;29;20207;-72
2021/04/14 02:04:59;;;;;;;1.00;1.00;;;;;;;3.55;74.85;102382.94;6073742;29;20219;-73
2021/04/14 02:08:04;;;;;;;2.53;1.10;;;;;;;3.37;74.12;102378.28;6074669;29;20192;-73
2021/04/14 02:11:08;;;;;;;0.90;0.90;;;;;;;3.63;73.67;102385.81;6074145;29;20190;-72
2021/04/14 02:14:13;;;;;;;0.80;0.80;;;;;;;3.71;73.56;102388.69;6074663;29;20195;-72
2021/04/14 02:17:16;;;;;;;1.30;0.80;;;;;;;3.62;73.14;102384.09;6074886;29;20231;-72
2021/04/14 02:20:20;;;;;;;0.93;0.93;;;;;;;3.51;73.46;102386.91;6074780;29;20191;-72
2021/04/14 02:23:27;;;;;;;1.10;0.93;;;;;;;3.43;72.38;102400.19;6074777;29;20195;-72
2021/04/14 02:26:30;;;;;;;1.10;0.90;;;;;;;3.38;72.77;102397.03;6073357;29;20464;-71
2021/04/14 02:29:33;;;;;;;1.10;1.10;;;;;;;3.37;73.03;102400.72;6074765;29;20291;-72
2021/04/14 02:32:36;;;;;;;0.97;0.97;;;;;;;3.35;73.07;102394.59;6074288;29;20225;-73
2021/04/14 02:35:40;;;;;;;1.00;1.00;;;;;;;3.50;72.48;102395.97;6073426;29;20379;-73
2021/04/14 02:38:44;;;;;;;1.27;1.27;;;;;;;3.30;71.74;102399.53;6074337;29;20199;-71
2021/04/14 02:41:47;;;;;;;1.00;1.00;;;;;;;3.25;72.50;102417.97;6074313;29;20222;-72
2021/04/14 02:44:50;;;;;;;1.17;1.17;;;;;;;3.18;71.52;102406.84;6074119;29;20263;-72
2021/04/14 02:47:53;;;;;;;1.13;1.10;;;;;;;3.25;71.81;102417.97;6074399;29;20200;-72
2021/04/14 02:50:57;;;;;;;1.70;0.93;;;;;;;3.02;71.87;102421.78;6072949;29;20209;-73
2021/04/14 02:54:01;;;;;;;1.40;1.40;;;;;;;3.14;71.83;102426.09;6072830;29;20204;-72
2021/04/14 02:57:04;;;;;;;1.80;1.00;;;;;;;3.34;71.56;102427.97;6074163;29;20192;-71
2021/04/14 03:00:10;;;;;;;0.90;0.90;;;;;;;3.30;71.51;102426.53;6072644;29;20531;-72
2021/04/14 03:03:17;;;;;;;1.00;1.00;;;;;;;3.27;71.16;102437.56;6072953;29;20243;-72
2021/04/14 03:06:21;;;;;;;0.80;0.80;;;;;;;3.26;71.26;102425.09;6072417;29;20192;-72
2021/04/14 03:09:25;;;;;;;1.53;0.90;;;;;;;3.27;70.48;102434.00;6072665;29;20456;-73
2021/04/14 03:12:28;;;;;;;1.03;1.03;;;;;;;3.23;71.34;102452.31;6073898;29;20193;-72
2021/04/14 03:15:33;;;;;;;1.00;1.00;;;;;;;3.20;70.64;102447.19;6073880;29;20199;-73
2021/04/14 03:18:37;;;;;;;0.90;0.90;;;;;;;3.33;71.10;102447.84;6073692;29;20232;-73
2021/04/14 03:21:40;;;;;;;1.20;0.93;;;;;;;3.20;70.60;102447.19;6073672;29;20194;-72
2021/04/14 03:24:44;;;;;;;2.23;1.13;;;;;;;3.10;70.03;102457.03;6072082;29;20599;-72
2021/04/14 03:27:47;;;;;;;1.00;1.00;;;;;;;3.30;68.72;102455.34;6072306;29;20559;-72
2021/04/14 03:30:50;;;;;;;1.00;1.00;;;;;;;3.25;69.04;102450.34;6072988;29;20193;-72
2021/04/14 03:33:53;;;;;;;0.97;0.97;;;;;;;3.35;68.35;102445.88;6073206;29;20201;-72
2021/04/14 03:36:57;;;;;;;1.00;1.00;;;;;;;3.25;68.21;102463.81;6072852;29;20198;-73
2021/04/14 03:40:01;;;;;;;0.90;0.90;;;;;;;3.05;68.86;102470.06;6072963;29;20261;-71
2021/04/14 03:43:06;;;;;;;1.10;1.10;;;;;;;3.17;68.69;102469.00;6073123;29;20233;-71
2021/04/14 03:46:09;;;;;;;0.90;0.90;;;;;;;3.22;69.29;102472.19;6072780;29;20296;-71
2021/04/14 03:49:12;;;;;;;0.97;0.97;;;;;;;3.11;69.17;102470.38;6055367;29;20218;-71
2021/04/14 03:52:33;;;;;;;0.97;0.97;;;;;;;3.12;68.28;102471.25;6056979;29;20213;-71
2021/04/14 03:55:54;;;;;;;1.00;1.00;;;;;;;3.24;68.22;102483.69;6071273;29;20362;-73
2021/04/14 03:59:14;;;;;;;0.90;0.90;;;;;;;3.28;69.30;102487.00;6071173;29;20455;-71
2021/04/14 04:02:33;;;;;;;2.40;0.80;;;;;;;3.07;68.48;102489.66;6056797;29;20293;-72
2021/04/14 04:05:56;;;;;;;1.00;1.00;;;;;;;3.05;67.26;102497.88;6071183;29;20244;-71
2021/04/14 04:09:19;;;;;;;2.03;1.20;;;;;;;3.14;68.31;102502.50;6057045;29;20207;-70
2021/04/14 04:12:41;;;;;;;1.10;1.10;;;;;;;3.02;67.74;102508.91;6071629;29;20190;-72
2021/04/14 04:15:44;;;;;;;1.10;1.10;;;;;;;3.04;67.45;102516.88;6070746;29;20478;-71
2021/04/14 04:18:48;;;;;;;1.20;1.10;;;;;;;3.17;67.46;102521.13;6054472;29;20206;-71
2021/04/14 04:21:51;;;;;;;2.83;1.10;;;;;;;3.30;66.93;102522.78;6070617;29;20524;-72
2021/04/14 04:24:54;;;;;;;1.10;1.10;;;;;;;3.31;66.86;102519.97;6070517;29;20576;-71
2021/04/14 04:27:58;;;;;;;1.80;1.00;;;;;;;3.12;67.30;102466.72;6071563;29;20250;-72
2021/04/14 04:31:01;;;;;;;1.17;1.10;;;;;;;3.36;66.59;102496.16;6071478;29;20264;-72
2021/04/14 04:34:05;;;;;;;1.20;1.20;;;;;;;3.32;69.05;102516.28;6071642;29;20233;-71
2021/04/14 04:37:23;;;;;;;1.07;1.07;;;;;;;3.52;69.49;102518.13;6071458;29;20242;-72
2021/04/14 04:40:44;;;;;;;1.10;1.10;;;;;;;3.32;70.98;102526.19;6071443;29;20239;-71
2021/04/14 04:43:48;;;;;;;1.30;1.30;;;;;;;3.58;70.84;102528.41;6071302;29;20194;-72
2021/04/14 04:46:52;;;;;;;1.27;1.10;;;;;;;3.68;70.32;102521.25;6070357;29;20382;-71
2021/04/14 04:49:55;;;;;;;3.60;1.17;;;;;;;3.51;71.58;102529.94;6070283;29;20194;-71
2021/04/14 04:53:00;;;;;;;3.90;1.20;;;;;;;3.28;71.97;102517.53;6054906;29;20241;-72
2021/04/14 04:56:03;;;;;;;4.87;1.37;;;;;;;3.36;72.34;102538.47;6070062;29;20478;-72
2021/04/14 04:59:07;;;;;;;1.30;1.30;;;;;;;3.34;73.01;102545.84;6070090;29;20213;-73
2021/04/14 05:02:12;;;;;;;1.20;1.20;;;;;;;3.38;72.91;102558.94;6070634;29;20206;-72
2021/04/14 05:05:18;;;;;;;5.80;1.23;;;;;;;3.39;73.11;102560.63;6069943;29;20595;-71
2021/04/14 05:08:22;;;;;;;2.37;1.33;;;;;;;3.37;71.39;102568.00;6070450;29;20252;-71
2021/04/14 05:11:25;;;;;;;1.57;1.23;;;;;;;3.51;71.69;102570.41;6069722;29;20483;-72
2021/04/14 05:14:29;;;;;;;2.73;1.50;;;;;;;3.59;71.43;102578.72;6070665;29;20198;-72
2021/04/14 05:17:32;;;;;;;1.30;1.30;;;;;;;3.67;71.67;102581.59;6070517;29;20264;-72
2021/04/14 05:20:35;;;;;;;2.10;1.30;;;;;;;3.74;71.20;102576.56;6069792;29;20388;-72
2021/04/14 05:23:39;;;;;;;2.00;1.20;;;;;;;3.51;72.00;102581.22;6070731;29;20193;-71
2021/04/14 05:26:42;;;;;;;4.17;1.20;;;;;;;3.61;70.78;102587.53;6070581;29;20295;-72
2021/04/14 05:29:47;;;;;;;5.13;1.40;;;;;;;3.41;71.16;102580.28;6071649;29;20385;-71
2021/04/14 05:32:50;;;;;;;2.40;1.30;;;;;;;3.59;71.84;102589.53;6075205;29;20230;-72
2021/04/14 05:35:55;;;;;;;1.40;1.30;;;;;;;3.57;70.35;102586.06;6075101;29;20198;-72
2021/04/14 05:38:58;;;;;;;2.63;1.20;;;;;;;3.69;70.29;102587.75;6073770;29;20194;-72
2021/04/14 05:42:01;;;;;;;2.43;1.57;;;;;;;3.85;69.23;102578.34;6074908;29;20193;-72
2021/04/14 05:45:07;;;;;;;1.37;1.37;;;;;;;3.83;70.04;102586.56;6057948;29;20407;-72
2021/04/14 05:48:11;;;;;;;1.27;1.27;;;;;;;3.73;68.39;102597.28;6073650;29;20337;-71
2021/04/14 05:51:18;;;;;;;1.87;1.40;;;;;;;3.77;69.53;102598.72;6074514;29;20261;-70
2021/04/14 05:54:21;;;;;;;1.17;1.10;;;;;;;3.73;69.33;102596.44;6073435;29;20207;-72
2021/04/14 05:57:25;;;;;;;2.47;1.30;;;;;;;3.64;68.21;102598.09;6073587;29;20270;-70
2021/04/14 06:00:29;;;;;;;1.23;1.23;;;;;;;3.33;67.99;102566.56;6073389;29;20423;-71
2021/04/14 06:03:32;;;;;;;2.47;1.30;;;;;;;3.59;66.67;102612.94;6074325;29;20249;-72
2021/04/14 06:06:36;;;;;;;2.97;1.30;;;;;;;3.84;65.76;102611.72;6074187;29;20284;-72
2021/04/14 06:09:41;;;;;;;1.20;1.20;;;;;;;3.74;63.97;102615.22;6073340;29;20227;-72
2021/04/14 06:12:45;;;;;;;5.67;1.53;;;;;;;3.85;62.83;102622.41;6073372;29;20195;-71
2021/04/14 06:15:49;;;;;;;1.30;1.30;;;;;;;3.77;62.98;102609.53;6074300;29;20197;-72
2021/04/14 06:18:53;;;;;;;1.17;1.17;;;;;;;4.08;61.69;102612.34;6074202;29;20239;-72
2021/04/14 06:21:56;;;;;;;2.40;1.20;;;;;;;4.15;61.31;102616.22;6074158;29;20191;-72
2021/04/14 06:24:59;;;;;;;7.13;1.40;;;;;;;3.90;59.78;102632.81;6072906;29;20218;-71
2021/04/14 06:28:05;;;;;;;2.90;1.23;;;;;;;3.87;60.07;102627.66;6073875;29;20199;-70
2021/04/14 06:31:11;;;;;;;5.00;1.10;;;;;;;4.16;60.50;102626.03;6073024;29;20265;-72
2021/04/14 06:34:20;;;;;;;4.33;1.00;;;;;;;4.14;58.39;102611.78;6074090;29;20200;-72
2021/04/14 06:37:23;;;;;;;8.37;2.20;;;;;;;4.34;58.02;102625.28;6072697;29;20382;-71
2021/04/14 06:40:46;;;;;;;6.63;1.30;;;;;;;4.43;57.54;102629.03;6073235;29;20199;-70
2021/04/14 06:44:01;;;;;;;3.73;1.27;;;;;;;4.49;57.92;102625.81;6072969;29;20192;-71
2021/04/14 06:47:13;;;;;;;1.90;1.07;;;;;;;4.52;58.50;102628.22;6073575;29;20219;-73
2021/04/14 06:50:23;;;;;;;6.60;1.10;;;;;;;4.59;57.05;102629.41;6073462;29;20422;-71
2021/04/14 06:53:35;;;;;;;3.57;1.00;;;;;;;4.63;56.30;102636.25;6073472;29;20191;-72
2021/04/14 06:56:40;;;;;;;0.97;0.97;;;;;;;4.84;55.88;102642.47;6055953;29;20431;-71
2021/04/14 06:59:47;;;;;;;2.93;1.20;;;;;;;5.30;55.28;102639.19;6073177;29;20191;-71
2021/04/14 07:02:58;;;;;;;4.70;1.47;;;;;;;5.44;56.76;102638.81;6073308;29;20267;-72
2021/04/14 07:06:04;;;;;;;8.17;1.50;;;;;;;5.74;57.26;102624.28;6073069;29;20222;-72
2021/04/14 07:09:16;;;;;;;;;;;;;;;6.07;56.15;102647.41;6072550;29;20468;-71
2021/04/14 07:12:21;;;;;;;7.60;1.43;;;;;;;6.11;57.37;102609.00;6072128;29;20756;-71
2021/04/14 07:15:25;;;;;;;1.43;1.20;;;;;;;6.26;54.24;102659.09;6073183;29;20233;-72
2021/04/14 07:18:40;;;;;;;5.20;1.53;;;;;;;5.66;54.20;102664.75;6072711;29;20183;-72
2021/04/14 07:21:50;;;;;;;1.60;1.10;;;;;;;5.23;54.92;102661.53;6072269;29;20194;-71
2021/04/14 07:24:57;;;;;;;2.60;1.20;;;;;;;5.23;55.40;102661.53;6072773;29;20194;-71
2021/04/14 07:28:15;;;;;;;6.83;1.33;;;;;;;5.32;55.60;102666.13;6072643;29;20197;-71
2021/04/14 07:31:26;;;;;;;4.70;1.37;;;;;;;5.29;55.53;102671.81;6071752;29;20214;-71
2021/04/14 07:34:44;;;;;;;1.20;1.10;;;;;;;5.19;53.91;102657.41;6071312;29;20242;-71
2021/04/14 07:38:02;;;;;;;6.07;0.90;;;;;;;5.37;53.75;102680.09;6071989;29;20246;-71
2021/04/14 07:41:15;;;;;;;4.57;1.00;;;;;;;5.50;52.77;102675.28;6072469;29;20194;-71
2021/04/14 07:44:27;;;;;;;9.27;1.33;;;;;;;5.30;52.21;102684.34;6071735;29;20225;-71
2021/04/14 07:47:32;;;;;;;10.87;1.20;;;;;;;5.29;52.75;102682.66;6072313;29;20221;-70
2021/04/14 07:50:41;;;;;;;4.63;1.00;;;;;;;5.19;51.43;102687.19;6072086;29;20194;-72
2021/04/14 07:53:57;;;;;;;5.60;1.30;;;;;;;5.11;51.66;102697.84;6071634;29;20197;-72
2021/04/14 07:57:00;;;;;;;5.10;1.00;;;;;;;5.07;52.09;102695.41;6071610;29;20197;-70
2021/04/14 08:00:11;;;;;;;;;;;;;;;5.23;52.87;102694.03;6071129;29;20193;-71
2021/04/14 08:03:24;;;;;;;;;;;;;;;5.23;51.57;102696.72;6071892;29;19926;-70
2021/04/14 08:06:29;;;;;;;;;;;;;;;5.18;52.32;102693.56;6072120;29;19966;-71
2021/04/14 08:09:31;;;;;;;;;;;;;;;5.40;51.63;102690.66;6071174;29;20225;-71
2021/04/14 08:12:36;;;;;;;;;;;;;;;5.44;52.10;102687.53;6071017;29;19919;-71
2021/04/14 08:15:43;;;;;;;;;;;;;;;5.48;49.50;102688.09;6071120;29;20086;-71
2021/04/14 08:18:51;;;;;;;;;;;;;;;5.40;49.59;102696.06;6072085;29;19920;-71
2021/04/14 08:21:58;;;;;;;0.90;0.90;;;;;;;5.49;49.75;102687.97;6070858;29;20262;-71
2021/04/14 08:25:09;;;;;;;2.77;1.17;;;;;;;5.48;50.13;102677.28;6071663;29;20192;-72
2021/04/14 08:28:27;;;;;;;3.07;0.90;;;;;;;5.35;48.92;102669.41;6071632;29;20201;-71
2021/04/14 08:31:44;;;;;;;1.70;0.90;;;;;;;5.70;49.21;102709.50;6071189;29;20194;-71
2021/04/14 08:34:55;;;;;;;0.90;0.90;;;;;;;5.63;49.08;102700.25;6054770;29;20276;-71
2021/04/14 08:38:02;;;;;;;4.53;0.90;;;;;;;5.75;48.21;102706.41;6070297;29;20217;-71
2021/04/14 08:41:06;;;;;;;3.73;1.00;;;;;;;5.73;47.89;102709.25;6071420;29;20193;-71
2021/04/14 08:44:13;;;;;;;0.70;0.70;;;;;;;5.80;47.81;102704.13;6053829;29;20210;-71
2021/04/14 08:47:25;;;;;;;0.80;0.80;;;;;;;5.98;47.63;102718.72;6070968;29;20220;-71
2021/04/14 08:50:31;;;;;;;1.43;0.77;;;;;;;5.89;47.85;102725.84;6069953;29;20198;-71
2021/04/14 08:53:39;;;;;;;2.53;0.83;;;;;;;5.65;47.79;102717.19;6070404;29;20200;-71
2021/04/14 08:56:42;;;;;;;1.20;1.10;;;;;;;5.73;47.88;102703.81;6071140;29;20232;-72
2021/04/14 08:59:46;;;;;;;1.83;1.10;;;;;;;5.89;47.97;102715.00;6070766;29;20201;-71
2021/04/14 09:02:52;;;;;;;5.77;1.07;;;;;;;6.00;48.01;102717.59;6071348;29;20273;-71
2021/04/14 09:05:56;;;;;;;3.77;0.87;;;;;;;5.97;47.18;102717.88;6074440;29;20218;-71
2021/04/14 09:09:03;;;;;;;4.87;2.40;;;;;;;6.16;47.98;102706.19;6058234;29;20367;-71
2021/04/14 09:12:09;;;;;;;2.43;0.83;;;;;;;6.32;47.25;102723.56;6075667;29;20218;-72
2021/04/14 09:15:14;;;;;;;1.00;1.00;;;;;;;6.13;46.27;102710.03;6075914;29;20225;-72
2021/04/14 09:18:30;;;;;;;0.80;0.80;;;;;;;6.23;47.20;102718.16;6075799;29;20340;-71
2021/04/14 09:21:46;;;;;;;1.00;0.90;;;;;;;6.21;45.58;102726.41;6075287;29;20217;-71
2021/04/14 09:24:52;;;;;;;1.20;1.10;;;;;;;6.21;45.46;102731.84;6075379;29;20230;-71
2021/04/14 09:28:00;;;;;;;3.27;1.00;;;;;;;6.19;46.13;102720.28;6075246;29;20213;-71
2021/04/14 09:31:09;;;;;;;2.47;0.80;;;;;;;6.38;45.65;102721.28;6075308;29;20222;-71
2021/04/14 09:34:30;;;;;;;5.13;1.03;;;;;;;6.13;44.78;102718.16;6075423;29;20191;-71
2021/04/14 09:37:33;;;;;;;10.70;1.00;;;;;;;6.40;45.49;102730.09;6075510;29;20197;-71
2021/04/14 09:40:38;;;;;;;1.50;0.90;;;;;;;6.40;45.37;102738.25;6075330;29;20193;-71
2021/04/14 09:43:43;;;;;;;1.43;0.70;;;;;;;6.47;43.88;102736.69;6075299;29;20205;-71
2021/04/14 09:46:55;;;;;;;3.10;1.00;;;;;;;6.38;45.30;102732.97;6075303;29;20252;-71
2021/04/14 09:50:01;;;;;;;6.37;1.10;;;;;;;6.44;45.62;102736.97;6074005;29;20257;-71
2021/04/14 09:53:09;;;;;;;1.33;1.07;;;;;;;6.27;44.61;102687.03;6075086;29;20190;-71
2021/04/14 09:56:23;;;;;;;3.00;0.70;;;;;;;6.53;43.47;102728.81;6073995;29;20234;-71
2021/04/14 09:59:29;;;;;;;3.73;1.30;;;;;;;6.67;43.68;102708.53;6073935;29;20222;-71
2021/04/14 10:02:37;;;;;;;6.30;0.80;;;;;;;6.74;42.01;102728.63;6073357;29;20245;-71
2021/04/14 10:05:40;;;;;;;;;;;;;;;6.62;42.90;102735.25;6073648;29;20059;-70
2021/04/14 10:08:44;;;;;;;;;;;;;;;6.77;42.86;102734.63;6074959;29;19928;-71
2021/04/14 10:11:50;;;;;;;;;;;;;;;6.71;42.58;102750.63;6074718;29;19920;-71
2021/04/14 10:14:53;;;;;;;;;;;;;;;6.83;42.51;102727.78;6073871;29;19919;-72
2021/04/14 10:18:01;;;;;;;;;;;;;;;6.90;41.74;102737.03;6074630;29;19927;-72
2021/04/14 10:21:12;;;;;;;;;;;;;;;6.96;42.57;102728.28;6073690;29;20174;-72
2021/04/14 10:24:18;;;;;;;0.90;0.80;;;;;;;6.94;42.36;102719.44;6073743;29;20278;-72
2021/04/14 10:27:22;;;;;;;2.80;1.00;;;;;;;7.13;41.93;102730.25;6074261;29;20214;-72
2021/04/14 10:30:28;;;;;;;0.80;0.80;;;;;;;7.22;41.64;102729.31;6072813;29;20222;-71
2021/04/14 10:33:32;;;;;;;0.80;0.80;;;;;;;7.42;43.21;102736.38;6073784;29;20198;-72
2021/04/14 10:36:36;;;;;;;;;;;;;;;7.36;44.23;102737.00;6074206;29;20085;-72
2021/04/14 10:39:39;;;;;;;;;;;;;;;7.22;40.50;102745.63;6073157;29;20191;-71
2021/04/14 10:42:42;;;;;;;;;;;;;;;7.44;41.00;102747.13;6074348;29;20006;-71
2021/04/14 10:45:54;;;;;;;;;;;;;;;7.40;39.96;102742.97;6073929;29;19930;-72
2021/04/14 10:48:59;;;;;;;;;;;;;;;7.48;38.42;102745.78;6073235;29;19955;-72
2021/04/14 10:52:09;;;;;;;9.48;1.08;;;;;;;7.32;38.73;102741.00;6073750;29;20204;-72
2021/04/14 10:55:18;;;;;;;0.65;0.65;;;;;;;7.45;38.24;102741.50;6073681;29;20213;-72
2021/04/14 10:58:24;;;;;;;0.77;0.77;;;;;;;7.63;37.83;102722.53;6073671;29;20194;-73
2021/04/14 11:01:35;;;;;;;4.00;1.20;;;;;;;7.85;38.35;102743.00;6073244;29;20239;-70
2021/04/14 11:04:41;;;;;;;3.53;0.95;;;;;;;7.78;37.58;102741.91;6072129;29;20563;-72
2021/04/14 11:07:45;;;;;;;0.77;0.77;;;;;;;7.90;37.54;102754.28;6072079;29;20521;-72
2021/04/14 11:10:49;;;;;;;0.70;0.70;;;;;;;7.88;37.04;102748.16;6072977;29;20238;-72
2021/04/14 11:13:54;;;;;;;1.70;1.20;;;;;;;7.90;36.19;102751.56;6071910;29;20191;-72
2021/04/14 11:16:58;;;;;;;1.02;0.80;;;;;;;7.96;35.13;102750.94;6072038;29;20375;-72
2021/04/14 11:20:04;;;;;;;;;;;;;;;8.08;36.61;102749.72;6072336;29;20493;-72
2021/04/14 11:23:17;;;;;;;;;;;;;;;8.29;36.77;102746.72;6073817;29;19944;-72
2021/04/14 11:26:20;;;;;;;;;;;;;;;8.05;37.96;102750.00;6073057;29;19967;-72
2021/04/14 11:29:28;;;;;;;5.90;0.80;;;;;;;8.18;36.58;102745.91;6071739;29;20421;-71
2021/04/14 11:32:31;;;;;;;0.77;0.77;;;;;;;8.10;36.20;102747.69;6072610;29;20217;-71
2021/04/14 11:35:44;;;;;;;1.00;1.00;;;;;;;8.41;37.15;102751.75;6072229;29;20378;-72
2021/04/14 11:38:58;;;;;;;4.05;0.90;;;;;;;8.49;38.88;102749.09;6071424;29;20244;-73
2021/04/14 11:42:12;;;;;;;3.55;0.90;;;;;;;8.15;38.10;102731.75;6071818;29;20198;-72
2021/04/14 11:45:25;;;;;;;5.15;1.00;;;;;;;8.31;37.47;102734.66;6071253;29;20485;-72
2021/04/14 11:48:33;;;;;;;0.80;0.80;;;;;;;8.55;37.45;102770.22;6072153;29;20214;-72
2021/04/14 11:51:39;;;;;;;1.83;1.05;;;;;;;8.38;36.47;102771.09;6072485;29;20265;-72
2021/04/14 11:54:43;;;;;;;1.77;0.68;;;;;;;8.26;35.89;102775.03;6072214;29;20190;-72
2021/04/14 11:57:49;;;;;;;2.00;1.13;;;;;;;8.26;38.10;102771.47;6072597;29;20194;-72
2021/04/14 12:00:53;;;;;;;0.80;0.80;;;;;;;8.38;37.14;102773.81;6071302;29;20289;-71
2021/04/14 12:03:57;;;;;;;1.52;0.80;;;;;;;8.26;36.43;102780.50;6071994;29;20553;-73
2021/04/14 12:06:59;;;;;;;9.18;1.10;;;;;;;8.20;36.24;102765.63;6072239;29;20217;-72
2021/04/14 12:10:05;;;;;;;5.00;1.02;;;;;;;8.08;36.82;102763.31;6072137;29;20273;-72
2021/04/14 12:13:09;;;;;;;0.73;0.73;;;;;;;8.14;36.10;102776.25;6072228;29;20257;-72
2021/04/14 12:16:13;;;;;;;0.60;0.60;;;;;;;8.18;36.09;102783.13;6072090;29;20243;-72
2021/04/14 12:19:16;;;;;;;1.67;0.80;;;;;;;8.28;36.53;102792.09;6055071;29;20209;-72
2021/04/14 12:22:20;;;;;;;3.00;0.95;;;;;;;8.22;36.49;102761.91;6071886;29;20190;-71
2021/04/14 12:25:24;;;;;;;3.67;1.10;;;;;;;8.22;37.77;102779.06;6071681;29;20231;-71
2021/04/14 12:28:27;;;;;;;3.92;0.85;;;;;;;8.41;37.34;102788.97;6070593;29;20409;-72
2021/04/14 12:31:32;;;;;;;3.40;0.70;;;;;;;8.33;36.36;102784.31;6070484;29;20388;-71
2021/04/14 12:34:35;;;;;;;1.35;1.10;;;;;;;8.52;36.49;102796.91;6070334;29;20213;-73
2021/04/14 12:37:40;;;;;;;1.08;0.85;;;;;;;8.39;37.32;102786.44;6069853;29;20534;-72
2021/04/14 12:40:46;;;;;;;0.70;0.70;;;;;;;8.37;36.92;102793.03;6071649;29;20191;-74
2021/04/14 12:43:49;;;;;;;1.23;0.82;;;;;;;8.49;36.46;102798.09;6070302;29;20453;-72
2021/04/14 12:46:53;;;;;;;0.70;0.70;;;;;;;8.21;36.13;102799.13;6070315;29;20549;-72
2021/04/14 12:50:04;;;;;;;1.77;0.77;;;;;;;8.45;36.60;102802.09;6071695;29;20190;-73
2021/04/14 12:53:08;;;;;;;0.82;0.75;;;;;;;8.61;37.54;102801.41;6071353;29;20191;-73
2021/04/14 12:56:37;;;;;;;0.70;0.70;;;;;;;8.74;36.93;102797.28;6071309;29;20230;-73
2021/04/14 13:00:03;;;;;;;0.70;0.70;;;;;;;8.90;35.89;102802.00;6053948;29;20195;-73
2021/04/14 13:03:26;;;;;;;0.87;0.87;;;;;;;8.91;36.40;102819.19;6070790;29;20292;-72
2021/04/14 13:06:34;;;;;;;0.70;0.70;;;;;;;8.67;36.08;102801.66;6071759;29;20238;-71
2021/04/14 13:09:39;;;;;;;0.80;0.80;;;;;;;8.43;36.86;102795.97;6069918;29;20529;-71
2021/04/14 13:12:43;;;;;;;0.70;0.70;;;;;;;8.64;37.33;102801.94;6069928;29;20421;-72
2021/04/14 13:15:51;;;;;;;0.98;0.90;;;;;;;8.38;37.51;102794.72;6071103;29;20190;-72
2021/04/14 13:18:55;;;;;;;1.65;0.57;;;;;;;8.46;38.10;102809.28;6069865;29;20509;-72
2021/04/14 13:22:02;;;;;;;1.00;1.00;;;;;;;8.62;37.41;102809.44;6069998;29;20389;-72
2021/04/14 13:25:12;;;;;;;2.10;0.80;;;;;;;8.67;37.46;102809.81;6071123;29;20246;-73
2021/04/14 13:28:22;;;;;;;1.05;0.90;;;;;;;8.72;37.95;102821.06;6069742;29;20218;-72
2021/04/14 13:31:33;;;;;;;2.38;1.17;;;;;;;8.62;37.78;102819.44;6069919;29;20198;-72
2021/04/14 13:34:46;;;;;;;0.95;0.80;;;;;;;8.63;37.99;102821.16;6069751;29;20197;-72
2021/04/14 13:38:11;;;;;;;0.75;0.75;;;;;;;8.50;36.79;102831.59;6069473;29;20201;-72
2021/04/14 13:41:20;;;;;;;0.77;0.77;;;;;;;8.41;37.45;102822.47;6070432;29;20197;-72
2021/04/14 13:44:28;;;;;;;0.80;0.80;;;;;;;8.43;37.64;102825.91;6070866;29;20197;-72
2021/04/14 13:47:39;;;;;;;1.23;0.90;;;;;;;8.48;36.80;102823.56;6069582;29;20214;-72
2021/04/14 13:50:51;;;;;;;1.30;0.88;;;;;;;8.59;37.91;102827.91;6072626;29;20190;-72
2021/04/14 13:53:56;;;;;;;4.60;1.20;;;;;;;8.42;38.73;102823.34;6074860;29;20191;-72
2021/04/14 13:57:00;;;;;;;2.90;1.15;;;;;;;8.26;37.92;102824.00;6074054;29;20455;-72
2021/04/14 14:00:09;;;;;;;5.10;1.50;;;;;;;8.60;37.93;102838.63;6074498;29;20412;-72
2021/04/14 14:03:22;;;;;;;2.17;1.08;;;;;;;8.85;37.59;102827.97;6073226;29;20539;-72
2021/04/14 14:06:38;;;;;;;0.98;0.90;;;;;;;8.72;37.80;102837.41;6073430;29;20420;-72
2021/04/14 14:09:45;;;;;;;0.80;0.80;;;;;;;8.81;37.14;102841.03;6073896;29;20190;-72
2021/04/14 14:12:49;;;;;;;1.58;0.80;;;;;;;8.87;36.54;102845.88;6073446;29;20191;-71
2021/04/14 14:16:13;;;;;;;2.75;0.90;;;;;;;8.73;36.56;102844.53;6074539;29;20266;-72
2021/04/14 14:19:19;;;;;;;5.15;1.08;;;;;;;8.69;36.90;102829.56;6056954;29;20210;-71
2021/04/14 14:22:24;;;;;;;1.20;1.02;;;;;;;8.70;37.08;102834.00;6073661;29;20197;-72
2021/04/14 14:25:27;;;;;;;1.45;0.90;;;;;;;8.62;36.80;102847.53;6072842;29;20198;-72
2021/04/14 14:28:30;;;;;;;2.50;1.20;;;;;;;8.90;37.84;102817.47;6072735;29;20533;-71
2021/04/14 14:31:35;;;;;;;4.57;1.02;;;;;;;9.11;37.46;102837.03;6072975;29;20197;-73
2021/04/14 14:34:39;;;;;;;0.70;0.70;;;;;;;9.07;36.20;102841.06;6073974;29;20175;-72
2021/04/14 14:37:46;;;;;;;0.90;0.90;;;;;;;8.90;35.40;102833.81;6073985;29;20198;-72
2021/04/14 14:40:53;;;;;;;2.53;0.95;;;;;;;8.89;36.09;102842.97;6072582;29;20221;-71
2021/04/14 14:44:01;;;;;;;1.40;1.05;;;;;;;8.65;36.82;102833.56;6073495;29;20190;-72
2021/04/14 14:47:06;;;;;;;2.70;0.80;;;;;;;8.26;38.31;102791.38;6073985;29;20277;-72